Time;durP1;ratioP1;P1;durP2;ratioP2;P2;SDS_P1;SDS_P2;PMS_P1;PMS_P2;Temp;Humidity;BMP_temperature;BMP_pressure;BME280_temperature;BME280_humidity;BME280_pressure;Samples;Min_cycle;Max_cycle;Signal;HPM_P1;HPM_P2
2023/06/08 00:00:11;;;;;;;9.70;6.82;;;;;;;;;;5048657;28;20060;-74
2023/06/08 00:02:37;;;;;;;9.63;6.40;;;;;;;;;;5051153;28;20031;-72
2023/06/08 00:05:04;;;;;;;12.05;6.88;;;;;;;;;;5056943;28;20576;-72
2023/06/08 00:07:34;;;;;;;11.13;6.47;;;;;;;;;;5047625;28;20024;-73
2023/06/08 00:10:00;;;;;;;11.00;7.38;;;;;;;;;;5044396;28;20036;-73
2023/06/08 00:12:27;;;;;;;11.40;7.88;;;;;;;;;;5045344;28;20062;-73
2023/06/08 00:14:53;;;;;;;9.82;6.80;;;;;;;;;;5058924;28;21030;-73
2023/06/08 00:17:19;;;;;;;12.48;8.45;;;;;;;;;;5050557;28;20155;-73
2023/06/08 00:19:45;;;;;;;11.90;8.13;;;;;;;;;;5048612;28;20063;-72
2023/06/08 00:22:13;;;;;;;15.63;8.13;;;;;;;;;;5053848;28;20529;-73
2023/06/08 00:24:39;;;;;;;10.25;6.22;;;;;;;;;;5051353;28;20047;-73
2023/06/08 00:27:05;;;;;;;12.07;7.28;;;;;;;;;;5045725;28;20029;-73
2023/06/08 00:29:32;;;;;;;11.25;7.43;;;;;;;;;;5052510;28;20394;-73
2023/06/08 00:31:58;;;;;;;14.00;7.50;;;;;;;;;;5053811;28;20046;-73
2023/06/08 00:34:25;;;;;;;10.93;7.30;;;;;;;;;;5055909;28;20542;-73
2023/06/08 00:36:51;;;;;;;11.30;7.20;;;;;;;;;;5050421;28;20082;-73
2023/06/08 00:39:18;;;;;;;11.85;7.10;;;;;;;;;;5061417;28;20021;-73
2023/06/08 00:41:44;;;;;;;13.45;7.85;;;;;;;;;;5060655;28;20037;-73
2023/06/08 00:44:10;;;;;;;9.85;6.57;;;;;;;;;;5051167;28;20127;-73
2023/06/08 00:46:37;;;;;;;12.52;7.65;;;;;;;;;;5048962;28;20025;-73
2023/06/08 00:49:03;;;;;;;11.35;7.10;;;;;;;;;;5057141;28;20041;-72
2023/06/08 00:51:32;;;;;;;12.27;7.38;;;;;;;;;;5058233;28;20067;-74
2023/06/08 00:53:58;;;;;;;12.23;7.75;;;;;;;;;;5058863;28;20025;-74
2023/06/08 00:56:31;;;;;;;15.45;7.25;;;;;;;;;;5047811;28;20143;-72
2023/06/08 00:59:00;;;;;;;11.52;7.35;;;;;;;;;;5058371;28;20411;-73
2023/06/08 01:01:29;;;;;;;11.73;8.05;;;;;;;;;;5057576;28;20036;-73
2023/06/08 01:04:00;;;;;;;12.00;7.72;;;;;;;;;;5054574;28;20031;-73
2023/06/08 01:06:28;;;;;;;12.25;6.82;;;;;;;;;;5062213;28;20016;-72
2023/06/08 01:09:00;;;;;;;14.25;7.40;;;;;;;;;;5062721;28;20031;-72
2023/06/08 01:11:42;;;;;;;14.10;7.15;;;;;;;;;;5053943;28;20043;-72
2023/06/08 01:14:15;;;;;;;17.02;8.95;;;;;;;;;;5063231;28;20029;-73
2023/06/08 01:16:44;;;;;;;12.38;7.35;;;;;;;;;;5050893;28;20486;-73
2023/06/08 01:19:12;;;;;;;15.80;8.02;;;;;;;;;;5058340;28;20260;-73
2023/06/08 01:21:39;;;;;;;11.88;7.90;;;;;;;;;;5058626;28;20020;-73
2023/06/08 01:24:14;;;;;;;12.70;7.57;;;;;;;;;;5055663;28;20450;-73
2023/06/08 01:26:41;;;;;;;15.95;7.85;;;;;;;;;;5059162;28;20120;-73
2023/06/08 01:29:09;;;;;;;12.00;7.80;;;;;;;;;;5062058;28;20028;-73
2023/06/08 01:31:36;;;;;;;11.27;7.75;;;;;;;;;;5055749;28;20045;-73
2023/06/08 01:34:02;;;;;;;12.35;6.38;;;;;;;;;;5052663;28;20464;-73
2023/06/08 01:36:47;;;;;;;15.57;7.57;;;;;;;;;;5065434;28;20029;-72
2023/06/08 01:39:31;;;;;;;11.00;6.60;;;;;;;;;;5050160;28;20044;-73
2023/06/08 01:41:59;;;;;;;10.27;6.75;;;;;;;;;;5065195;28;20035;-73
2023/06/08 01:44:26;;;;;;;12.90;7.65;;;;;;;;;;5061173;28;20033;-72
2023/06/08 01:46:56;;;;;;;15.18;8.30;;;;;;;;;;5051973;28;20127;-72
2023/06/08 01:49:23;;;;;;;14.23;8.32;;;;;;;;;;5062928;28;20450;-72
2023/06/08 01:51:50;;;;;;;12.77;7.47;;;;;;;;;;5048791;28;20025;-73
2023/06/08 01:54:16;;;;;;;10.90;7.30;;;;;;;;;;5059532;28;20363;-72
2023/06/08 01:56:42;;;;;;;11.32;7.15;;;;;;;;;;5060554;28;20037;-72
2023/06/08 01:59:08;;;;;;;13.55;7.38;;;;;;;;;;5055933;28;20451;-72
2023/06/08 02:01:34;;;;;;;12.77;7.28;;;;;;;;;;5053627;28;20029;-73
2023/06/08 02:04:00;;;;;;;17.55;8.25;;;;;;;;;;5078230;28;20103;-72
2023/06/08 02:06:26;;;;;;;13.40;8.35;;;;;;;;;;5051290;28;20032;-73
2023/06/08 02:08:52;;;;;;;10.52;7.47;;;;;;;;;;5053101;28;20032;-72
2023/06/08 02:11:18;;;;;;;16.33;9.18;;;;;;;;;;5049794;28;20090;-73
2023/06/08 02:13:45;;;;;;;13.73;7.57;;;;;;;;;;5060561;28;20478;-73
2023/06/08 02:16:12;;;;;;;16.73;8.00;;;;;;;;;;5049621;28;20045;-74
2023/06/08 02:18:41;;;;;;;15.38;8.18;;;;;;;;;;5057876;28;20032;-73
2023/06/08 02:21:08;;;;;;;14.77;8.23;;;;;;;;;;5047801;28;20021;-73
2023/06/08 02:23:34;;;;;;;16.48;8.43;;;;;;;;;;5053497;28;20032;-73
2023/06/08 02:26:00;;;;;;;13.68;8.80;;;;;;;;;;5051289;28;20033;-73
2023/06/08 02:28:26;;;;;;;14.30;8.10;;;;;;;;;;5058964;28;21123;-75
2023/06/08 02:30:53;;;;;;;10.73;7.82;;;;;;;;;;5062642;28;20037;-73
2023/06/08 02:33:20;;;;;;;17.50;9.10;;;;;;;;;;5053764;28;20417;-73
2023/06/08 02:35:46;;;;;;;17.45;8.70;;;;;;;;;;5067654;28;20490;-74
2023/06/08 02:38:13;;;;;;;17.35;9.35;;;;;;;;;;5050055;28;20117;-74
2023/06/08 02:40:39;;;;;;;14.77;8.10;;;;;;;;;;5056441;28;20051;-73
2023/06/08 02:43:05;;;;;;;15.60;8.57;;;;;;;;;;5053215;28;20675;-74
2023/06/08 02:45:31;;;;;;;15.05;8.25;;;;;;;;;;5060904;28;20021;-73
2023/06/08 02:47:57;;;;;;;15.02;8.77;;;;;;;;;;5065728;28;20020;-73
2023/06/08 02:50:23;;;;;;;15.25;9.07;;;;;;;;;;5057715;28;20028;-73
2023/06/08 02:52:50;;;;;;;16.05;9.05;;;;;;;;;;5063796;28;20303;-73
2023/06/08 02:55:16;;;;;;;18.95;9.38;;;;;;;;;;5059060;28;20028;-73
2023/06/08 02:57:42;;;;;;;16.58;8.60;;;;;;;;;;5049791;28;20040;-74
2023/06/08 03:00:09;;;;;;;20.75;8.70;;;;;;;;;;5054790;28;20468;-73
2023/06/08 03:02:35;;;;;;;15.30;8.07;;;;;;;;;;5062518;28;20109;-73
2023/06/08 03:05:04;;;;;;;18.17;8.25;;;;;;;;;;5050750;28;20471;-73
2023/06/08 03:07:33;;;;;;;16.20;7.18;;;;;;;;;;5050307;28;20029;-73
2023/06/08 03:10:00;;;;;;;15.38;7.97;;;;;;;;;;5062984;28;20021;-72
2023/06/08 03:12:26;;;;;;;17.05;7.55;;;;;;;;;;5059258;28;20451;-72
2023/06/08 03:14:53;;;;;;;19.70;7.15;;;;;;;;;;5054820;28;20028;-73
2023/06/08 03:17:19;;;;;;;14.82;7.13;;;;;;;;;;5058474;28;20040;-73
2023/06/08 03:19:45;;;;;;;15.85;6.80;;;;;;;;;;5064520;28;20040;-73
2023/06/08 03:22:12;;;;;;;17.30;7.85;;;;;;;;;;5062483;28;20069;-73
2023/06/08 03:24:38;;;;;;;15.13;7.68;;;;;;;;;;5062175;28;20277;-73
2023/06/08 03:27:06;;;;;;;14.32;7.10;;;;;;;;;;5068240;28;20027;-74
2023/06/08 03:29:32;;;;;;;15.02;7.68;;;;;;;;;;5052973;28;20032;-74
2023/06/08 03:31:58;;;;;;;14.73;7.53;;;;;;;;;;5056037;28;20024;-74
2023/06/08 03:34:25;;;;;;;12.98;6.38;;;;;;;;;;5058595;28;20017;-73
2023/06/08 03:36:52;;;;;;;10.10;5.82;;;;;;;;;;5050580;28;20075;-74
2023/06/08 03:39:18;;;;;;;14.65;6.38;;;;;;;;;;5059788;28;20367;-73
2023/06/08 03:41:45;;;;;;;10.38;6.13;;;;;;;;;;5048196;28;20425;-73
2023/06/08 03:44:11;;;;;;;16.13;6.88;;;;;;;;;;5061043;28;20028;-73
2023/06/08 03:46:37;;;;;;;15.38;6.47;;;;;;;;;;5056281;28;20498;-73
2023/06/08 03:49:03;;;;;;;15.45;7.47;;;;;;;;;;5060378;28;20370;-74
2023/06/08 03:51:29;;;;;;;11.77;7.35;;;;;;;;;;5055939;28;20020;-73
2023/06/08 03:53:55;;;;;;;12.07;6.72;;;;;;;;;;5052577;28;20048;-74
2023/06/08 03:56:21;;;;;;;17.40;8.30;;;;;;;;;;5058430;28;20053;-72
2023/06/08 03:58:48;;;;;;;16.05;7.03;;;;;;;;;;5048769;28;20060;-73
2023/06/08 04:01:14;;;;;;;12.85;6.80;;;;;;;;;;5056544;28;20060;-72
2023/06/08 04:03:41;;;;;;;12.90;6.47;;;;;;;;;;5054703;28;20025;-73
2023/06/08 04:06:08;;;;;;;18.02;7.22;;;;;;;;;;5055809;28;20047;-73
2023/06/08 04:08:39;;;;;;;19.08;8.05;;;;;;;;;;5063070;28;20044;-74
2023/06/08 04:11:07;;;;;;;16.83;6.32;;;;;;;;;;5058257;28;20141;-73
2023/06/08 04:13:34;;;;;;;14.50;6.85;;;;;;;;;;5059280;28;20028;-73
2023/06/08 04:16:03;;;;;;;14.23;6.45;;;;;;;;;;5053635;28;20421;-73
2023/06/08 04:18:29;;;;;;;14.85;6.50;;;;;;;;;;5058432;28;20417;-74
2023/06/08 04:20:56;;;;;;;9.88;6.40;;;;;;;;;;5057336;28;20033;-73
2023/06/08 04:23:22;;;;;;;15.07;6.90;;;;;;;;;;5065706;28;20024;-74
2023/06/08 04:25:48;;;;;;;16.15;7.38;;;;;;;;;;5064280;28;20488;-76
2023/06/08 04:28:14;;;;;;;12.98;6.15;;;;;;;;;;5056272;28;20053;-73
2023/06/08 04:30:40;;;;;;;14.30;6.90;;;;;;;;;;5059776;28;20064;-73
2023/06/08 04:33:07;;;;;;;14.95;6.25;;;;;;;;;;5059649;28;20513;-71
2023/06/08 04:35:33;;;;;;;10.07;6.47;;;;;;;;;;5055672;28;20036;-72
2023/06/08 04:37:59;;;;;;;16.38;6.82;;;;;;;;;;5066237;28;20070;-74
2023/06/08 04:40:25;;;;;;;13.70;7.20;;;;;;;;;;5053959;28;20025;-73
2023/06/08 04:42:51;;;;;;;15.20;6.50;;;;;;;;;;5055430;28;20043;-72
2023/06/08 04:45:18;;;;;;;11.57;6.70;;;;;;;;;;5057294;28;20547;-73
2023/06/08 04:47:45;;;;;;;10.65;6.03;;;;;;;;;;5051663;28;20367;-74
2023/06/08 04:50:11;;;;;;;16.40;6.50;;;;;;;;;;5049472;28;20029;-74
2023/06/08 04:52:40;;;;;;;12.85;5.93;;;;;;;;;;5062718;28;20052;-73
2023/06/08 04:55:16;;;;;;;15.38;6.50;;;;;;;;;;5060432;28;20025;-73
2023/06/08 04:57:42;;;;;;;12.65;5.78;;;;;;;;;;5068353;28;20021;-74
2023/06/08 05:00:09;;;;;;;10.85;6.13;;;;;;;;;;5056309;28;20025;-73
2023/06/08 05:02:36;;;;;;;9.02;6.13;;;;;;;;;;5063913;28;20025;-73
2023/06/08 05:05:03;;;;;;;10.20;6.45;;;;;;;;;;5057670;28;20099;-72
2023/06/08 05:07:29;;;;;;;9.50;6.35;;;;;;;;;;5058054;28;20470;-73
2023/06/08 05:09:56;;;;;;;12.85;6.03;;;;;;;;;;5066294;28;20032;-73
2023/06/08 05:12:23;;;;;;;20.55;6.72;;;;;;;;;;5064520;28;20029;-73
2023/06/08 05:14:49;;;;;;;11.02;6.15;;;;;;;;;;5057368;28;20021;-72
2023/06/08 05:17:15;;;;;;;15.25;6.15;;;;;;;;;;5062118;28;20086;-72
2023/06/08 05:19:41;;;;;;;13.38;6.57;;;;;;;;;;5067300;28;20048;-73
2023/06/08 05:22:07;;;;;;;12.55;5.72;;;;;;;;;;5053380;28;20096;-72
2023/06/08 05:24:33;;;;;;;19.13;7.13;;;;;;;;;;5062524;28;20098;-73
2023/06/08 05:26:59;;;;;;;16.00;7.10;;;;;;;;;;5057687;28;20027;-73
2023/06/08 05:29:25;;;;;;;10.10;6.00;;;;;;;;;;5054457;28;20489;-72
2023/06/08 05:31:51;;;;;;;12.40;6.57;;;;;;;;;;5066320;28;20400;-73
2023/06/08 05:34:17;;;;;;;9.20;6.35;;;;;;;;;;5057758;28;20431;-72
2023/06/08 05:36:43;;;;;;;12.30;6.50;;;;;;;;;;5055273;28;20433;-73
2023/06/08 05:39:10;;;;;;;11.77;6.25;;;;;;;;;;5062192;28;20029;-72
2023/06/08 05:41:36;;;;;;;15.98;6.55;;;;;;;;;;5063992;28;20607;-73
2023/06/08 05:44:02;;;;;;;15.90;5.93;;;;;;;;;;5055088;28;20035;-73
2023/06/08 05:46:28;;;;;;;13.45;5.47;;;;;;;;;;5058078;28;20421;-73
2023/06/08 05:48:54;;;;;;;12.70;6.78;;;;;;;;;;5058866;28;20031;-73
2023/06/08 05:51:20;;;;;;;13.68;5.97;;;;;;;;;;5056675;28;20037;-73
2023/06/08 05:53:47;;;;;;;11.32;6.50;;;;;;;;;;5057127;28;20032;-73
2023/06/08 05:56:13;;;;;;;12.10;6.40;;;;;;;;;;5057504;28;20043;-73
2023/06/08 05:58:39;;;;;;;14.23;6.50;;;;;;;;;;5052363;28;20025;-73
2023/06/08 06:01:05;;;;;;;11.15;6.65;;;;;;;;;;5054888;28;20033;-74
2023/06/08 06:03:31;;;;;;;13.02;6.45;;;;;;;;;;5056856;28;20107;-73
2023/06/08 06:06:01;;;;;;;11.90;6.53;;;;;;;;;;5051287;28;20105;-73
2023/06/08 06:08:30;;;;;;;13.10;6.80;;;;;;;;;;5061730;28;20032;-73
2023/06/08 06:10:56;;;;;;;16.33;6.53;;;;;;;;;;5057117;28;20261;-73
2023/06/08 06:13:22;;;;;;;13.38;7.72;;;;;;;;;;5055517;28;20032;-73
2023/06/08 06:15:48;;;;;;;13.00;7.15;;;;;;;;;;5055616;28;20414;-74
2023/06/08 06:18:14;;;;;;;10.00;6.63;;;;;;;;;;5059078;28;20042;-73
2023/06/08 06:20:40;;;;;;;11.70;6.90;;;;;;;;;;5060692;28;20035;-74
2023/06/08 06:23:06;;;;;;;13.07;6.95;;;;;;;;;;5055731;28;20032;-73
2023/06/08 06:25:33;;;;;;;12.55;7.75;;;;;;;;;;5057499;28;20031;-73
2023/06/08 06:27:59;;;;;;;10.57;7.38;;;;;;;;;;5065740;28;20016;-74
2023/06/08 06:30:26;;;;;;;12.05;6.90;;;;;;;;;;5055067;28;20056;-73
2023/06/08 06:32:52;;;;;;;13.18;7.30;;;;;;;;;;5055026;28;20123;-74
2023/06/08 06:35:18;;;;;;;13.15;6.30;;;;;;;;;;5058171;28;20037;-73
2023/06/08 06:37:44;;;;;;;12.27;6.97;;;;;;;;;;5054744;28;20401;-73
2023/06/08 06:40:11;;;;;;;13.00;7.10;;;;;;;;;;5062652;28;20111;-74
2023/06/08 06:42:39;;;;;;;16.17;7.68;;;;;;;;;;5056854;28;20060;-74
2023/06/08 06:45:05;;;;;;;11.80;7.93;;;;;;;;;;5060439;28;20071;-74
2023/06/08 06:47:31;;;;;;;12.68;8.20;;;;;;;;;;5056419;28;20911;-74
2023/06/08 06:49:57;;;;;;;10.32;7.28;;;;;;;;;;5060844;28;20024;-74
2023/06/08 06:52:23;;;;;;;15.95;7.43;;;;;;;;;;5055964;28;20080;-73
2023/06/08 06:54:50;;;;;;;13.70;7.07;;;;;;;;;;5063073;28;20382;-73
2023/06/08 06:57:16;;;;;;;15.43;8.70;;;;;;;;;;5057469;28;20520;-74
2023/06/08 06:59:42;;;;;;;13.80;7.57;;;;;;;;;;5053271;28;20039;-73
2023/06/08 07:02:09;;;;;;;12.00;7.43;;;;;;;;;;5057687;28;20031;-74
2023/06/08 07:04:35;;;;;;;12.27;7.32;;;;;;;;;;5059288;28;20095;-74
2023/06/08 07:07:01;;;;;;;13.68;7.18;;;;;;;;;;5054222;28;20028;-74
2023/06/08 07:09:28;;;;;;;14.27;6.88;;;;;;;;;;5054005;28;20029;-74
2023/06/08 07:11:55;;;;;;;12.77;7.70;;;;;;;;;;5061440;28;20056;-72
2023/06/08 07:14:21;;;;;;;11.27;7.07;;;;;;;;;;5062696;28;20036;-73
2023/06/08 07:16:47;;;;;;;12.90;7.20;;;;;;;;;;5063229;28;20028;-73
2023/06/08 07:19:13;;;;;;;9.15;6.72;;;;;;;;;;5060390;28;20044;-74
2023/06/08 07:21:40;;;;;;;13.10;7.13;;;;;;;;;;5056739;28;20048;-73
2023/06/08 07:24:07;;;;;;;11.30;6.68;;;;;;;;;;5061346;28;20335;-73
2023/06/08 07:26:33;;;;;;;17.73;7.18;;;;;;;;;;5056628;28;20024;-73
2023/06/08 07:28:59;;;;;;;13.13;7.72;;;;;;;;;;5056544;28;20382;-73
2023/06/08 07:31:26;;;;;;;11.57;7.18;;;;;;;;;;5048849;28;20418;-73
2023/06/08 07:33:53;;;;;;;11.30;7.28;;;;;;;;;;5053265;28;20619;-73
2023/06/08 07:36:20;;;;;;;13.35;7.50;;;;;;;;;;5058307;28;20025;-73
2023/06/08 07:38:50;;;;;;;10.93;7.15;;;;;;;;;;5055302;28;20059;-74
2023/06/08 07:41:18;;;;;;;11.80;7.65;;;;;;;;;;5056011;28;20466;-74
2023/06/08 07:43:44;;;;;;;9.25;6.68;;;;;;;;;;5062291;28;20025;-74
2023/06/08 07:46:10;;;;;;;12.40;6.30;;;;;;;;;;5062238;28;20501;-73
2023/06/08 07:48:36;;;;;;;9.38;6.80;;;;;;;;;;5055522;28;20059;-73
2023/06/08 07:51:02;;;;;;;18.50;7.43;;;;;;;;;;5082891;28;20038;-74
2023/06/08 07:53:38;;;;;;;10.00;6.28;;;;;;;;;;5064052;28;20537;-74
2023/06/08 07:56:04;;;;;;;13.65;7.43;;;;;;;;;;5056272;28;20457;-74
2023/06/08 07:58:31;;;;;;;11.00;7.20;;;;;;;;;;5069812;28;20025;-73
2023/06/08 08:00:57;;;;;;;10.13;6.72;;;;;;;;;;5055438;28;20033;-73
2023/06/08 08:03:24;;;;;;;11.20;6.93;;;;;;;;;;5050350;28;20214;-74
2023/06/08 08:05:50;;;;;;;13.50;6.68;;;;;;;;;;5056527;28;20032;-73
2023/06/08 08:08:16;;;;;;;10.68;6.82;;;;;;;;;;5062855;28;20986;-75
2023/06/08 08:10:42;;;;;;;10.13;7.50;;;;;;;;;;5058868;28;20024;-74
2023/06/08 08:13:09;;;;;;;11.20;7.30;;;;;;;;;;5056615;28;20051;-74
2023/06/08 08:15:35;;;;;;;13.73;7.18;;;;;;;;;;5059705;28;20064;-74
2023/06/08 08:18:02;;;;;;;11.07;8.05;;;;;;;;;;5057675;28;20028;-74
2023/06/08 08:20:28;;;;;;;11.07;7.75;;;;;;;;;;5050523;28;20039;-74
2023/06/08 08:22:55;;;;;;;10.80;7.88;;;;;;;;;;5056724;28;20120;-73
2023/06/08 08:25:21;;;;;;;9.40;7.53;;;;;;;;;;5058652;28;20071;-73
2023/06/08 08:27:47;;;;;;;10.73;8.27;;;;;;;;;;5060543;28;20040;-74
2023/06/08 08:30:14;;;;;;;13.55;7.78;;;;;;;;;;5062175;28;20193;-73
2023/06/08 08:32:40;;;;;;;11.23;8.48;;;;;;;;;;5054620;28;20072;-74
2023/06/08 08:35:08;;;;;;;13.23;7.60;;;;;;;;;;5046354;28;20036;-73
2023/06/08 08:37:34;;;;;;;9.40;7.25;;;;;;;;;;5056137;28;20044;-74
2023/06/08 08:40:00;;;;;;;11.25;7.70;;;;;;;;;;5050819;28;20380;-73
2023/06/08 08:42:27;;;;;;;9.45;6.70;;;;;;;;;;5054436;28;20024;-73
2023/06/08 08:44:57;;;;;;;12.23;8.02;;;;;;;;;;5062096;28;20036;-74
2023/06/08 08:47:26;;;;;;;12.48;7.78;;;;;;;;;;5058102;28;20360;-72
2023/06/08 08:49:56;;;;;;;8.40;6.57;;;;;;;;;;5052952;28;20028;-74
2023/06/08 08:52:24;;;;;;;10.07;6.82;;;;;;;;;;5065602;28;20459;-74
2023/06/08 08:54:55;;;;;;;11.35;7.75;;;;;;;;;;5058359;28;20068;-74
2023/06/08 08:57:22;;;;;;;9.80;6.78;;;;;;;;;;5056836;28;20033;-74
2023/06/08 08:59:48;;;;;;;11.40;6.13;;;;;;;;;;5054404;28;20029;-75
2023/06/08 09:02:14;;;;;;;11.10;7.03;;;;;;;;;;5059855;28;20453;-74
2023/06/08 09:04:40;;;;;;;13.40;8.30;;;;;;;;;;5065767;28;20020;-74
2023/06/08 09:07:06;;;;;;;9.02;6.78;;;;;;;;;;5050988;28;20033;-74
2023/06/08 09:09:32;;;;;;;9.77;6.60;;;;;;;;;;5050955;28;20108;-74
2023/06/08 09:11:59;;;;;;;10.98;6.60;;;;;;;;;;5052815;28;20033;-74
2023/06/08 09:14:26;;;;;;;18.95;7.53;;;;;;;;;;5062242;28;20029;-74
2023/06/08 09:16:53;;;;;;;9.75;6.63;;;;;;;;;;5054448;28;20035;-73
2023/06/08 09:19:19;;;;;;;12.80;8.55;;;;;;;;;;5049277;28;20025;-73
2023/06/08 09:21:47;;;;;;;16.88;8.63;;;;;;;;;;5053949;28;20021;-74
2023/06/08 09:24:18;;;;;;;10.48;7.90;;;;;;;;;;5052992;28;20029;-73
2023/06/08 09:26:48;;;;;;;11.32;7.90;;;;;;;;;;5053001;28;20013;-74
2023/06/08 09:29:34;;;;;;;10.68;7.93;;;;;;;;;;5045976;28;20029;-74
2023/06/08 09:32:01;;;;;;;15.60;9.00;;;;;;;;;;5054474;28;20037;-73
2023/06/08 09:34:33;;;;;;;13.50;8.40;;;;;;;;;;5045017;28;20035;-74
2023/06/08 09:37:11;;;;;;;12.15;8.68;;;;;;;;;;5054675;28;20024;-73
2023/06/08 09:39:40;;;;;;;14.75;8.82;;;;;;;;;;5055163;28;20040;-74
2023/06/08 09:42:07;;;;;;;15.07;8.13;;;;;;;;;;5055139;28;20032;-73
2023/06/08 09:44:33;;;;;;;12.63;8.60;;;;;;;;;;5055016;28;20071;-72
2023/06/08 09:46:59;;;;;;;10.82;8.57;;;;;;;;;;5054384;28;20047;-73
2023/06/08 09:49:25;;;;;;;14.23;9.15;;;;;;;;;;5059051;28;20032;-73
2023/06/08 09:51:53;;;;;;;11.48;9.13;;;;;;;;;;5063710;28;20025;-74
2023/06/08 09:54:20;;;;;;;9.82;8.23;;;;;;;;;;5062996;28;20032;-72
2023/06/08 09:56:47;;;;;;;9.68;8.00;;;;;;;;;;5063303;28;20033;-73
2023/06/08 09:59:17;;;;;;;13.75;8.63;;;;;;;;;;5060414;28;20033;-74
2023/06/08 10:01:52;;;;;;;11.45;9.00;;;;;;;;;;5065349;28;20107;-74
2023/06/08 10:04:18;;;;;;;;;;;;;;;;;;5056658;28;20027;-74
2023/06/08 10:06:45;;;;;;;15.48;9.38;;;;;;;;;;5055608;28;19905;-74
2023/06/08 10:09:12;;;;;;;12.80;9.13;;;;;;;;;;5062554;28;20146;-74
2023/06/08 10:11:40;;;;;;;13.05;8.43;;;;;;;;;;5062075;28;20029;-73
2023/06/08 10:14:06;;;;;;;14.18;8.38;;;;;;;;;;5056908;28;20060;-74
2023/06/08 10:16:33;;;;;;;11.77;8.85;;;;;;;;;;5053641;28;20025;-74
2023/06/08 10:18:59;;;;;;;14.25;8.90;;;;;;;;;;5068009;28;20386;-73
2023/06/08 10:21:26;;;;;;;13.27;9.07;;;;;;;;;;5053818;28;20069;-73
2023/06/08 10:23:53;;;;;;;11.75;8.65;;;;;;;;;;5052695;28;20069;-73
2023/06/08 10:26:19;;;;;;;12.98;8.82;;;;;;;;;;5061550;28;20089;-73
2023/06/08 10:29:08;;;;;;;14.93;10.65;;;;;;;;;;5056888;28;20036;-74
2023/06/08 10:31:35;;;;;;;16.95;9.32;;;;;;;;;;5053945;28;20086;-73
2023/06/08 10:34:09;;;;;;;13.57;9.63;;;;;;;;;;5063983;28;20028;-73
2023/06/08 10:36:42;;;;;;;13.18;8.80;;;;;;;;;;5051252;28;20433;-73
2023/06/08 10:39:12;;;;;;;11.65;9.85;;;;;;;;;;5057641;28;20028;-74
2023/06/08 10:41:39;;;;;;;13.85;9.65;;;;;;;;;;5049211;28;20029;-74
2023/06/08 10:44:05;;;;;;;14.32;8.38;;;;;;;;;;5057325;28;20028;-74
2023/06/08 10:46:44;;;;;;;14.20;8.82;;;;;;;;;;5062095;28;20061;-75
2023/06/08 10:49:10;;;;;;;18.33;9.10;;;;;;;;;;5053258;28;20036;-74
2023/06/08 10:51:45;;;;;;;13.75;8.52;;;;;;;;;;5060462;28;20036;-74
2023/06/08 10:54:11;;;;;;;;;;;;;;;;;;5053531;28;20100;-74
2023/06/08 10:56:44;;;;;;;14.38;9.27;;;;;;;;;;5045543;28;20030;-74
2023/06/08 10:59:10;;;;;;;12.48;8.80;;;;;;;;;;5054955;28;20086;-74
2023/06/08 11:01:36;;;;;;;14.93;10.38;;;;;;;;;;5060166;28;20029;-73
2023/06/08 11:04:05;;;;;;;13.45;9.23;;;;;;;;;;5055152;28;20016;-74
2023/06/08 11:06:35;;;;;;;12.32;9.18;;;;;;;;;;5053142;28;20029;-74
2023/06/08 11:09:03;;;;;;;14.00;8.25;;;;;;;;;;5059163;28;20016;-73
2023/06/08 11:11:30;;;;;;;12.00;8.55;;;;;;;;;;5060258;28;20562;-73
2023/06/08 11:13:56;;;;;;;12.88;8.02;;;;;;;;;;5050623;28;20029;-75
2023/06/08 11:16:23;;;;;;;20.88;7.97;;;;;;;;;;5057188;28;20021;-73
2023/06/08 11:18:49;;;;;;;9.98;7.70;;;;;;;;;;5069458;28;20064;-74
2023/06/08 11:21:15;;;;;;;10.38;7.13;;;;;;;;;;5056836;28;20083;-74
2023/06/08 11:23:41;;;;;;;15.38;8.80;;;;;;;;;;5064740;28;20029;-74
2023/06/08 11:26:11;;;;;;;13.20;8.07;;;;;;;;;;5060146;28;20033;-73
2023/06/08 11:28:37;;;;;;;11.55;7.82;;;;;;;;;;5063068;28;20025;-74
2023/06/08 11:31:09;;;;;;;12.10;8.45;;;;;;;;;;5056330;28;20055;-74
2023/06/08 11:33:35;;;;;;;10.18;8.02;;;;;;;;;;5053489;28;20032;-74
2023/06/08 11:36:02;;;;;;;14.05;8.75;;;;;;;;;;5064897;28;20039;-74
2023/06/08 11:38:29;;;;;;;13.02;8.55;;;;;;;;;;5062358;28;20032;-74
2023/06/08 11:40:58;;;;;;;11.65;7.97;;;;;;;;;;5059353;28;20032;-74
2023/06/08 11:43:24;;;;;;;15.73;9.13;;;;;;;;;;5064640;28;20029;-74
2023/06/08 11:45:51;;;;;;;13.65;8.77;;;;;;;;;;5058835;28;20447;-74
2023/06/08 11:48:17;;;;;;;11.88;8.27;;;;;;;;;;5063961;28;20039;-73
2023/06/08 11:50:49;;;;;;;13.05;8.38;;;;;;;;;;5062106;28;20370;-73
2023/06/08 11:53:22;;;;;;;13.43;9.00;;;;;;;;;;5053480;28;20040;-74
2023/06/08 11:55:48;;;;;;;12.07;8.50;;;;;;;;;;5056142;28;20075;-75
2023/06/08 11:58:14;;;;;;;14.15;9.52;;;;;;;;;;5061392;28;20076;-73
2023/06/08 12:00:40;;;;;;;12.00;8.38;;;;;;;;;;5049269;28;20029;-74
2023/06/08 12:03:10;;;;;;;16.90;9.52;;;;;;;;;;5061614;28;20040;-75
2023/06/08 12:05:37;;;;;;;16.55;9.65;;;;;;;;;;5054242;28;20082;-74
2023/06/08 12:08:05;;;;;;;14.38;9.35;;;;;;;;;;5049856;28;20033;-74
2023/06/08 12:10:35;;;;;;;15.57;9.60;;;;;;;;;;5053805;28;20438;-74
2023/06/08 12:13:06;;;;;;;13.60;9.18;;;;;;;;;;5050560;28;20056;-74
2023/06/08 12:15:35;;;;;;;26.77;14.02;;;;;;;;;;5056750;28;20031;-74
2023/06/08 12:18:02;;;;;;;17.67;10.75;;;;;;;;;;5073081;28;20093;-74
2023/06/08 12:20:33;;;;;;;12.93;9.60;;;;;;;;;;5066426;28;20106;-75
2023/06/08 12:22:59;;;;;;;23.45;12.95;;;;;;;;;;5061266;28;20032;-74
2023/06/08 12:25:25;;;;;;;20.08;11.80;;;;;;;;;;5058366;28;20107;-74
2023/06/08 12:27:51;;;;;;;19.33;10.80;;;;;;;;;;5059920;28;20029;-74
2023/06/08 12:30:17;;;;;;;12.70;8.88;;;;;;;;;;5069808;28;20052;-74
2023/06/08 12:32:44;;;;;;;18.83;11.57;;;;;;;;;;5056937;28;20025;-74
2023/06/08 12:35:10;;;;;;;15.90;10.48;;;;;;;;;;5050376;28;20044;-75
2023/06/08 12:37:36;;;;;;;12.43;9.63;;;;;;;;;;5054844;28;20029;-74
2023/06/08 12:40:05;;;;;;;17.90;10.68;;;;;;;;;;5056001;28;20754;-74
2023/06/08 12:42:31;;;;;;;15.13;11.60;;;;;;;;;;5059934;28;20500;-74
2023/06/08 12:44:57;;;;;;;17.35;10.18;;;;;;;;;;5066463;28;20127;-75
2023/06/08 12:47:23;;;;;;;14.40;10.52;;;;;;;;;;5069604;28;20268;-74
2023/06/08 12:49:49;;;;;;;14.10;10.30;;;;;;;;;;5061050;28;20665;-74
2023/06/08 12:52:18;;;;;;;17.23;11.07;;;;;;;;;;5062183;28;20040;-73
2023/06/08 12:54:44;;;;;;;14.95;10.63;;;;;;;;;;5053947;28;20509;-74
2023/06/08 12:57:11;;;;;;;15.13;10.77;;;;;;;;;;5048758;28;20124;-73
2023/06/08 12:59:37;;;;;;;13.88;10.45;;;;;;;;;;5064298;28;20032;-75
2023/06/08 13:02:04;;;;;;;15.20;9.75;;;;;;;;;;5060341;28;20032;-74
2023/06/08 13:04:30;;;;;;;19.10;12.05;;;;;;;;;;5062685;28;20525;-74
2023/06/08 13:06:56;;;;;;;15.85;10.13;;;;;;;;;;5059229;28;20452;-74
2023/06/08 13:09:22;;;;;;;17.73;11.32;;;;;;;;;;5048909;28;20029;-74
2023/06/08 13:11:48;;;;;;;18.35;10.05;;;;;;;;;;5060317;28;20182;-74
2023/06/08 13:14:14;;;;;;;13.90;10.38;;;;;;;;;;5063034;28;20024;-74
2023/06/08 13:16:40;;;;;;;14.85;10.93;;;;;;;;;;5064881;28;20033;-73
2023/06/08 13:19:06;;;;;;;15.52;10.77;;;;;;;;;;5058992;28;20029;-75
2023/06/08 13:21:34;;;;;;;16.33;11.18;;;;;;;;;;5070409;28;20033;-74
2023/06/08 13:24:01;;;;;;;17.35;10.73;;;;;;;;;;5067697;28;20028;-73
2023/06/08 13:26:27;;;;;;;18.17;11.52;;;;;;;;;;5068276;28;20023;-75
2023/06/08 13:28:53;;;;;;;13.60;10.07;;;;;;;;;;5065580;28;20024;-75
2023/06/08 13:31:20;;;;;;;16.50;10.60;;;;;;;;;;5065979;28;20103;-75
2023/06/08 13:33:46;;;;;;;19.08;10.52;;;;;;;;;;5067467;28;20033;-75
2023/06/08 13:36:12;;;;;;;15.75;11.07;;;;;;;;;;5069760;28;20025;-75
2023/06/08 13:38:38;;;;;;;15.00;10.60;;;;;;;;;;5058268;28;20357;-74
2023/06/08 13:41:04;;;;;;;11.90;10.27;;;;;;;;;;5060277;28;20381;-76
2023/06/08 13:43:30;;;;;;;12.35;9.77;;;;;;;;;;5066466;28;20253;-76
2023/06/08 13:46:02;;;;;;;16.52;10.95;;;;;;;;;;5059135;28;20108;-75
2023/06/08 13:48:28;;;;;;;16.42;11.80;;;;;;;;;;5071193;28;20120;-75
2023/06/08 13:50:55;;;;;;;17.05;10.50;;;;;;;;;;5066715;28;20123;-74
2023/06/08 13:53:21;;;;;;;17.30;11.70;;;;;;;;;;5068861;28;20051;-74
2023/06/08 13:55:47;;;;;;;15.02;10.77;;;;;;;;;;5061149;28;20025;-74
2023/06/08 13:58:14;;;;;;;13.32;10.93;;;;;;;;;;5072209;28;20048;-75
2023/06/08 14:00:40;;;;;;;23.13;12.60;;;;;;;;;;5078259;28;20259;-74
2023/06/08 14:03:06;;;;;;;14.68;10.65;;;;;;;;;;5059924;28;20036;-75
2023/06/08 14:05:32;;;;;;;14.45;11.65;;;;;;;;;;5062834;28;20064;-74
2023/06/08 14:07:58;;;;;;;16.70;12.40;;;;;;;;;;5077813;28;20040;-77
2023/06/08 14:10:25;;;;;;;13.45;10.43;;;;;;;;;;5071696;28;20110;-75
2023/06/08 14:12:52;;;;;;;16.40;10.90;;;;;;;;;;5071516;28;20448;-75
2023/06/08 14:15:18;;;;;;;14.75;11.20;;;;;;;;;;5064932;28;20059;-74
2023/06/08 14:17:45;;;;;;;15.05;10.52;;;;;;;;;;5071028;28;20406;-74
2023/06/08 14:20:11;;;;;;;14.98;10.77;;;;;;;;;;5068080;28;20049;-75
2023/06/08 14:22:38;;;;;;;16.75;11.23;;;;;;;;;;5053066;28;20033;-75
2023/06/08 14:25:05;;;;;;;15.63;9.95;;;;;;;;;;5065144;28;20512;-74
2023/06/08 14:27:31;;;;;;;13.82;10.57;;;;;;;;;;5055630;28;20021;-75